createdAt,value
2023-04-09T00:01:23.970Z,39.25
2023-04-09T00:03:55.351Z,42.00
2023-04-09T00:06:26.321Z,42.00
2023-04-09T00:08:58.266Z,49.00
2023-04-09T00:11:32.506Z,52.75
2023-04-09T00:14:02.925Z,45.00
2023-04-09T00:16:39.508Z,46.25
2023-04-09T00:19:10.773Z,38.75
2023-04-09T00:21:41.328Z,46.75
2023-04-09T00:24:14.697Z,36.50
2023-04-09T00:26:53.816Z,38.00
2023-04-09T00:29:25.556Z,40.00
2023-04-09T00:31:56.395Z,48.00
2023-04-09T00:34:32.352Z,45.75
2023-04-09T00:37:03.110Z,47.75
2023-04-09T00:39:33.580Z,49.75
2023-04-09T00:42:04.552Z,51.75
2023-04-09T00:44:35.867Z,55.75
2023-04-09T00:47:20.129Z,46.75
2023-04-09T00:49:58.091Z,51.50
2023-04-09T00:52:29.604Z,55.50
2023-04-09T00:55:08.076Z,45.25
2023-04-09T00:57:38.588Z,48.50
2023-04-09T01:00:10.817Z,44.25
2023-04-09T01:02:42.425Z,44.25
2023-04-09T01:05:17.766Z,39.75
2023-04-09T01:08:06.298Z,39.25
2023-04-09T01:10:43.358Z,42.75
2023-04-09T01:13:25.976Z,35.75
2023-04-09T01:16:15.115Z,41.00
2023-04-09T01:19:01.143Z,35.25
2023-04-09T01:21:34.760Z,38.50
2023-04-09T01:24:24.768Z,33.25
2023-04-09T01:27:07.293Z,31.50
2023-04-09T01:29:47.519Z,29.00
2023-04-09T01:32:21.320Z,38.25
2023-04-09T01:34:55.462Z,38.25
2023-04-09T01:37:27.456Z,24.00
2023-04-09T01:39:59.722Z,30.75
2023-04-09T01:42:30.231Z,33.25
2023-04-09T01:45:03.145Z,30.75
2023-04-09T01:47:34.943Z,33.75
2023-04-09T01:50:06.475Z,33.75
2023-04-09T01:52:37.645Z,35.25
2023-04-09T01:55:08.628Z,36.75
2023-04-09T01:57:39.256Z,33.00
2023-04-09T02:00:12.688Z,31.25
2023-04-09T02:02:56.373Z,30.75
2023-04-09T02:05:30.118Z,33.00
2023-04-09T02:08:02.971Z,30.25
2023-04-09T02:10:38.562Z,29.25
2023-04-09T02:13:11.905Z,28.50
2023-04-09T02:15:43.789Z,35.00
2023-04-09T02:18:25.460Z,33.50
2023-04-09T02:20:57.627Z,32.75
2023-04-09T02:23:28.407Z,30.00
2023-04-09T02:25:59.333Z,40.75
2023-04-09T02:28:30.378Z,33.50
2023-04-09T02:31:01.754Z,37.00
2023-04-09T02:33:32.269Z,40.75
2023-04-09T02:36:03.190Z,41.75
2023-04-09T02:38:34.234Z,34.75
2023-04-09T02:41:05.577Z,33.00
2023-04-09T02:43:36.631Z,40.00
2023-04-09T02:46:08.039Z,37.25
2023-04-09T02:48:39.083Z,38.75
2023-04-09T02:51:09.709Z,33.00
2023-04-09T02:53:41.706Z,36.75
2023-04-09T02:56:12.662Z,37.50
2023-04-09T02:58:44.201Z,38.75
2023-04-09T03:01:15.339Z,38.00
2023-04-09T03:03:47.706Z,42.50
2023-04-09T03:06:18.667Z,44.25
2023-04-09T03:08:50.097Z,47.75
2023-04-09T03:11:21.380Z,43.75
2023-04-09T03:13:51.838Z,41.25
2023-04-09T03:16:27.309Z,42.00
2023-04-09T03:18:57.754Z,49.00
2023-04-09T03:21:28.275Z,44.75
2023-04-09T03:23:58.619Z,49.75
2023-04-09T03:26:29.403Z,46.50
2023-04-09T03:29:00.482Z,46.25
2023-04-09T03:31:31.384Z,42.25
2023-04-09T03:34:02.065Z,46.50
2023-04-09T03:36:33.269Z,38.50
2023-04-09T03:39:03.731Z,37.75
2023-04-09T03:41:40.996Z,39.00
2023-04-09T03:44:11.386Z,39.50
2023-04-09T03:46:42.090Z,43.75
2023-04-09T03:49:12.600Z,40.50
2023-04-09T03:51:42.988Z,40.50
2023-04-09T03:54:19.282Z,40.75
2023-04-09T03:56:50.616Z,40.50
2023-04-09T03:59:24.851Z,45.50
2023-04-09T04:01:58.478Z,38.50
2023-04-09T04:04:29.384Z,38.50
2023-04-09T04:07:00.533Z,46.50
2023-04-09T04:09:31.654Z,13.75
2023-04-09T04:12:04.205Z,42.75
2023-04-09T04:14:44.070Z,47.00
2023-04-09T04:17:17.070Z,45.75
2023-04-09T04:19:48.028Z,47.00
2023-04-09T04:22:19.224Z,51.75
2023-04-09T04:24:49.911Z,45.50
2023-04-09T04:27:20.426Z,43.75
2023-04-09T04:29:50.894Z,52.00
2023-04-09T04:32:22.191Z,46.00
2023-04-09T04:34:54.797Z,45.75
2023-04-09T04:37:53.562Z,45.75
2023-04-09T04:40:26.956Z,48.00
2023-04-09T04:42:57.544Z,46.00
2023-04-09T04:45:31.584Z,48.75
2023-04-09T04:51:20.033Z,42.25
2023-04-09T04:53:54.017Z,45.00
2023-04-09T04:56:24.752Z,40.00
2023-04-09T04:58:58.695Z,40.50
2023-04-09T05:01:29.560Z,46.50
2023-04-09T05:04:07.384Z,50.00
2023-04-09T05:06:38.539Z,48.00
2023-04-09T05:09:09.088Z,45.25
2023-04-09T05:11:39.602Z,42.75
2023-04-09T05:14:11.141Z,51.25
2023-04-09T05:16:43.355Z,39.25
2023-04-09T05:19:26.025Z,40.00
2023-04-09T05:21:56.101Z,46.50
2023-04-09T05:24:26.572Z,48.00
2023-04-09T05:26:56.939Z,45.75
2023-04-09T05:29:28.200Z,45.75
2023-04-09T05:32:12.963Z,45.50
2023-04-09T05:34:43.797Z,46.75
2023-04-09T05:37:14.419Z,42.75
2023-04-09T05:39:46.955Z,43.25
2023-04-09T05:42:19.613Z,44.75
2023-04-09T05:44:50.173Z,40.25
2023-04-09T05:47:21.292Z,53.00
2023-04-09T05:49:52.305Z,53.75
2023-04-09T05:52:25.794Z,76.50
2023-04-09T05:55:06.441Z,75.50
2023-04-09T05:57:37.863Z,64.25
2023-04-09T06:00:13.080Z,55.25
2023-04-09T06:02:49.664Z,52.75
2023-04-09T06:05:22.415Z,42.25
2023-04-09T06:07:55.076Z,39.25
2023-04-09T06:10:28.399Z,39.50
2023-04-09T06:13:03.560Z,32.50
2023-04-09T06:15:47.973Z,40.50
2023-04-09T06:18:19.124Z,39.00
2023-04-09T06:20:50.985Z,32.50
2023-04-09T06:23:30.213Z,32.50
2023-04-09T06:26:45.924Z,35.00
2023-04-09T06:28:56.568Z,32.50
2023-04-09T06:31:30.711Z,29.75
2023-04-09T06:34:02.113Z,38.50
2023-04-09T06:36:39.011Z,48.00
2023-04-09T06:39:11.170Z,127.00
2023-04-09T06:41:43.160Z,85.25
2023-04-09T06:44:16.769Z,60.75
2023-04-09T06:46:52.156Z,45.25
2023-04-09T06:49:28.801Z,47.25
2023-04-09T06:52:01.711Z,34.75
2023-04-09T06:54:36.200Z,35.00
2023-04-09T06:57:12.556Z,43.00
2023-04-09T06:59:45.738Z,38.00
2023-04-09T07:02:32.859Z,38.25
2023-04-09T07:05:10.958Z,36.25
2023-04-09T07:07:45.453Z,38.50
2023-04-09T07:10:20.098Z,36.50
2023-04-09T07:12:51.150Z,36.50
2023-04-09T07:15:22.218Z,32.75
2023-04-09T07:18:02.805Z,36.50
2023-04-09T07:20:34.580Z,46.00
2023-04-09T07:23:07.792Z,33.00
2023-04-09T07:25:39.706Z,44.50
2023-04-09T07:28:15.183Z,42.00
2023-04-09T07:30:50.773Z,72.50
2023-04-09T07:33:27.094Z,50.75
2023-04-09T07:36:02.726Z,49.50
2023-04-09T07:38:33.934Z,49.00
2023-04-09T07:41:18.160Z,43.75
2023-04-09T07:43:49.270Z,44.25
2023-04-09T07:46:23.138Z,35.00
2023-04-09T07:48:57.607Z,44.50
2023-04-09T07:51:30.011Z,43.75
2023-04-09T07:54:02.497Z,31.50
2023-04-09T07:56:40.738Z,35.25
2023-04-09T07:59:11.871Z,33.50
2023-04-09T08:01:48.520Z,38.00
2023-04-09T08:04:24.144Z,32.00
2023-04-09T08:06:54.780Z,34.00
2023-04-09T08:09:29.595Z,30.50
2023-04-09T08:12:02.935Z,26.40
2023-04-09T08:14:36.451Z,37.75
2023-04-09T08:17:11.639Z,38.00
2023-04-09T08:19:43.723Z,38.00
2023-04-09T08:22:22.320Z,43.75
2023-04-09T08:24:59.068Z,37.50
2023-04-09T08:27:44.285Z,36.75
2023-04-09T08:36:37.972Z,20.75
2023-04-09T08:39:09.221Z,38.00
2023-04-09T08:41:43.522Z,34.00
2023-04-09T08:44:19.029Z,34.25
2023-04-09T08:46:56.516Z,28.75
2023-04-09T08:49:27.312Z,26.00
2023-04-09T08:51:58.390Z,38.00
2023-04-09T08:54:28.928Z,31.50
2023-04-09T08:57:07.496Z,25.75
2023-04-09T08:59:38.050Z,32.50
2023-04-09T09:02:18.929Z,38.75
2023-04-09T09:04:54.595Z,32.75
2023-04-09T09:07:24.868Z,36.00
2023-04-09T09:10:11.874Z,34.25
2023-04-09T09:12:43.075Z,23.50
2023-04-09T09:15:28.153Z,31.25
2023-04-09T09:18:04.215Z,24.00
2023-04-09T09:20:37.407Z,27.75
2023-04-09T09:23:13.527Z,31.25
2023-04-09T09:25:49.609Z,28.75
2023-04-09T09:28:21.485Z,27.00
2023-04-09T09:30:53.300Z,32.00
2023-04-09T09:33:23.761Z,24.25
2023-04-09T09:35:56.212Z,31.75
2023-04-09T09:38:26.726Z,33.75
2023-04-09T09:40:59.038Z,30.25
2023-04-09T09:43:41.398Z,29.25
2023-04-09T09:46:12.521Z,30.00
2023-04-09T09:48:46.860Z,29.25
2023-04-09T09:51:18.746Z,33.75
2023-04-09T09:53:57.284Z,32.75
2023-04-09T09:56:34.326Z,37.50
2023-04-09T09:59:26.156Z,32.50
2023-04-09T10:02:04.613Z,35.50
2023-04-09T10:04:36.151Z,28.00
2023-04-09T10:07:09.249Z,31.25
2023-04-09T10:09:46.910Z,33.75
2023-04-09T10:12:20.895Z,35.75
2023-04-09T10:14:54.997Z,36.75
2023-04-09T10:17:25.510Z,40.75
2023-04-09T10:19:59.106Z,37.25
2023-04-09T10:22:32.206Z,38.00
2023-04-09T10:25:04.701Z,47.75
2023-04-09T10:27:36.681Z,47.50
2023-04-09T10:30:08.873Z,41.00
2023-04-09T10:32:40.175Z,46.25
2023-04-09T10:35:11.256Z,39.75
2023-04-09T10:37:50.410Z,40.50
2023-04-09T10:40:23.457Z,39.75
2023-04-09T10:42:58.386Z,39.25
2023-04-09T10:45:32.991Z,38.00
2023-04-09T10:48:07.079Z,43.00
2023-04-09T10:50:45.744Z,66.00
2023-04-09T10:53:28.663Z,70.25
2023-04-09T10:56:01.905Z,46.75
2023-04-09T10:58:34.496Z,51.25
2023-04-09T11:01:07.612Z,38.50
2023-04-09T11:03:42.152Z,34.25
2023-04-09T11:06:15.805Z,38.75
2023-04-09T11:08:46.652Z,32.00
2023-04-09T11:11:17.733Z,36.00
2023-04-09T11:13:51.242Z,36.75
2023-04-09T11:16:25.489Z,39.00
2023-04-09T11:18:56.729Z,82.75
2023-04-09T11:21:28.296Z,111.00
2023-04-09T11:23:59.254Z,91.75
2023-04-09T11:26:37.637Z,34.00
2023-04-09T11:29:11.494Z,52.25
2023-04-09T11:31:44.935Z,32.50
2023-04-09T11:34:17.502Z,30.50
2023-04-09T11:36:52.197Z,33.25
2023-04-09T11:39:22.788Z,29.25
2023-04-09T11:41:58.788Z,24.50
2023-04-09T11:44:29.837Z,28.00
2023-04-09T11:47:03.008Z,28.75
2023-04-09T11:49:34.418Z,32.75
2023-04-09T11:52:11.209Z,27.25
2023-04-09T11:54:42.410Z,26.00
2023-04-09T11:57:13.535Z,23.75
2023-04-09T11:59:45.964Z,26.00
2023-04-09T12:02:18.922Z,19.80
2023-04-09T12:04:51.022Z,28.80
2023-04-09T12:07:23.391Z,19.60
2023-04-09T12:09:54.438Z,20.40
2023-04-09T12:12:25.593Z,22.40
2023-04-09T12:14:57.077Z,25.40
2023-04-09T12:17:28.228Z,20.20
2023-04-09T12:20:03.274Z,19.00
2023-04-09T12:22:34.187Z,19.80
2023-04-09T12:25:08.773Z,18.00
2023-04-09T12:27:40.026Z,21.80
2023-04-09T12:30:13.490Z,22.80
2023-04-09T12:32:44.800Z,18.80
2023-04-09T12:35:15.951Z,16.00
2023-04-09T12:37:46.735Z,17.60
2023-04-09T12:40:18.348Z,18.80
2023-04-09T12:42:49.596Z,18.20
2023-04-09T12:45:21.450Z,16.80
2023-04-09T12:47:55.072Z,16.60
2023-04-09T12:50:26.451Z,17.20
2023-04-09T12:52:59.079Z,14.40
2023-04-09T12:55:34.546Z,18.00
2023-04-09T12:58:19.792Z,14.20
2023-04-09T13:01:00.755Z,5.60
2023-04-09T13:03:32.451Z,11.60
2023-04-09T13:06:04.133Z,59.25
2023-04-09T13:08:35.428Z,90.25
2023-04-09T13:11:07.340Z,65.75
2023-04-09T13:13:39.841Z,42.50
2023-04-09T13:16:13.190Z,29.75
2023-04-09T13:18:44.853Z,25.50
2023-04-09T13:21:17.089Z,18.75
2023-04-09T13:23:48.321Z,13.80
2023-04-09T13:26:21.722Z,20.00
2023-04-09T13:28:55.987Z,17.40
2023-04-09T13:31:29.913Z,18.20
2023-04-09T13:34:02.474Z,16.20
2023-04-09T13:36:37.013Z,18.60
2023-04-09T13:39:08.260Z,16.40
2023-04-09T13:41:39.478Z,18.20
2023-04-09T13:44:11.747Z,19.00
2023-04-09T13:46:43.398Z,19.25
2023-04-09T13:49:14.542Z,21.75
2023-04-09T13:51:54.056Z,22.00
2023-04-09T13:54:28.606Z,21.75
2023-04-09T13:57:00.030Z,21.25
2023-04-09T13:59:31.481Z,13.50
2023-04-09T14:02:03.790Z,20.50
2023-04-09T14:04:36.339Z,23.25
2023-04-09T14:07:08.327Z,22.25
2023-04-09T14:09:41.233Z,22.25
2023-04-09T14:12:16.688Z,21.00
2023-04-09T14:14:47.747Z,32.50
2023-04-09T14:17:18.332Z,131.25
2023-04-09T14:19:51.196Z,78.25
2023-04-09T14:22:23.208Z,26.75
2023-04-09T14:24:55.072Z,22.50
2023-04-09T14:27:33.567Z,71.75
2023-04-09T14:30:07.047Z,57.25
2023-04-09T14:32:40.878Z,58.25
2023-04-09T14:35:12.031Z,18.50
2023-04-09T14:37:43.890Z,22.25
2023-04-09T14:40:15.084Z,16.75
2023-04-09T14:42:46.698Z,17.75
2023-04-09T14:45:17.988Z,20.00
2023-04-09T14:47:49.353Z,18.75
2023-04-09T14:50:20.675Z,13.25
2023-04-09T14:52:51.799Z,14.00
2023-04-09T14:55:25.918Z,14.50
2023-04-09T14:57:57.772Z,16.50
2023-04-09T15:00:40.025Z,13.25
2023-04-09T15:03:16.146Z,12.75
2023-04-09T15:06:49.382Z,14.50
2023-04-09T15:08:55.326Z,14.50
2023-04-09T15:11:41.048Z,13.25
2023-04-09T15:14:15.364Z,13.75
2023-04-09T15:17:41.427Z,13.50
2023-04-09T15:19:44.139Z,13.50
2023-04-09T15:22:08.847Z,16.00
2023-04-09T15:24:43.667Z,15.75
2023-04-09T15:27:22.867Z,16.75
2023-04-09T15:40:33.134Z,18.00
2023-04-09T15:43:40.970Z,20.50
2023-04-09T15:46:35.261Z,21.75
2023-04-09T15:49:20.638Z,22.00
2023-04-09T15:52:08.117Z,19.75
2023-04-09T15:58:13.445Z,60.00
2023-04-09T16:00:47.213Z,57.25
2023-04-09T16:07:18.641Z,30.75
2023-04-09T16:09:53.843Z,28.00
2023-04-09T16:19:30.846Z,33.25
2023-04-09T16:22:06.097Z,21.25
2023-04-09T16:24:37.334Z,30.50
2023-04-09T16:27:10.048Z,25.50
2023-04-09T16:29:44.268Z,29.50
2023-04-09T16:32:29.789Z,26.00
2023-04-09T16:35:09.566Z,32.25
2023-04-09T16:37:49.696Z,30.75
2023-04-09T16:40:24.364Z,33.75
2023-04-09T16:43:05.017Z,22.00
2023-04-09T16:46:50.940Z,30.50
2023-04-09T16:48:16.389Z,35.25
2023-04-09T17:02:31.939Z,25.50
2023-04-09T17:05:06.032Z,35.00
2023-04-09T17:08:01.224Z,30.00
2023-04-09T17:10:53.900Z,34.50
2023-04-09T17:13:33.337Z,40.25
2023-04-09T17:18:58.857Z,25.00
2023-04-09T17:21:41.086Z,35.00
2023-04-09T17:24:14.365Z,37.75
2023-04-09T17:26:50.094Z,32.25
2023-04-09T17:29:35.168Z,159.25
2023-04-09T17:35:17.801Z,18.75
2023-04-09T17:37:55.196Z,22.75
2023-04-09T17:40:38.069Z,21.50
2023-04-09T17:43:15.802Z,22.00
2023-04-09T17:46:17.162Z,17.25
2023-04-09T17:48:33.542Z,21.75
2023-04-09T17:54:27.457Z,16.50
2023-04-09T17:57:29.896Z,18.00
2023-04-09T18:00:19.450Z,17.25
2023-04-09T18:02:55.436Z,12.75
2023-04-09T18:05:31.526Z,11.75
2023-04-09T18:08:07.774Z,10.25
2023-04-09T18:10:43.620Z,25.00
2023-04-09T18:13:14.450Z,21.00
2023-04-09T18:15:48.484Z,17.50
2023-04-09T18:18:27.187Z,12.75
2023-04-09T18:21:09.155Z,11.25
2023-04-09T18:23:47.692Z,14.00
2023-04-09T18:26:22.808Z,8.00
2023-04-09T18:29:03.714Z,11.75
2023-04-09T18:31:33.685Z,10.25
2023-04-09T18:34:06.470Z,8.75
2023-04-09T18:36:41.728Z,10.25
2023-04-09T18:39:18.957Z,10.00
2023-04-09T18:41:53.262Z,12.25
2023-04-09T18:44:32.312Z,9.50
2023-04-09T18:47:04.738Z,13.00
2023-04-09T18:49:40.180Z,11.00
2023-04-09T18:52:23.309Z,11.50
2023-04-09T18:55:05.272Z,11.00
2023-04-09T18:57:31.197Z,13.25
2023-04-09T19:00:05.710Z,10.00
2023-04-09T19:02:39.645Z,9.50
2023-04-09T19:05:15.287Z,10.50
2023-04-09T19:07:53.777Z,11.25
2023-04-09T19:10:24.943Z,14.00
2023-04-09T19:12:57.015Z,12.75
2023-04-09T19:15:28.638Z,11.25
2023-04-09T19:18:06.220Z,12.75
2023-04-09T19:20:38.283Z,10.00
2023-04-09T19:23:13.405Z,13.25
2023-04-09T19:25:54.249Z,10.75
2023-04-09T19:28:27.828Z,12.00
2023-04-09T19:31:02.070Z,13.50
2023-04-09T19:33:42.475Z,13.50
2023-04-09T19:36:11.717Z,12.50
2023-04-09T19:38:50.914Z,12.75
2023-04-09T19:41:22.462Z,14.50
2023-04-09T19:43:58.239Z,16.25
2023-04-09T19:46:31.919Z,14.25
2023-04-09T19:49:07.335Z,17.25
2023-04-09T19:51:40.859Z,18.00
2023-04-09T19:54:15.801Z,26.50
2023-04-09T19:56:50.099Z,27.00
2023-04-09T19:59:22.486Z,22.75
2023-04-09T20:01:55.200Z,28.25
2023-04-09T20:04:28.578Z,29.50
2023-04-09T20:07:05.973Z,25.75
2023-04-09T20:09:48.647Z,28.00
2023-04-09T20:12:20.474Z,28.00
2023-04-09T20:14:54.232Z,31.00
2023-04-09T20:17:31.042Z,32.75
2023-04-09T20:20:09.515Z,23.75
2023-04-09T20:22:47.997Z,29.75
2023-04-09T20:25:24.112Z,26.00
2023-04-09T20:27:54.725Z,23.75
2023-04-09T20:30:27.681Z,30.50
2023-04-09T20:33:04.062Z,26.75
2023-04-09T20:35:39.226Z,26.50
2023-04-09T20:38:13.555Z,29.50
2023-04-09T20:43:38.619Z,21.25
2023-04-09T20:46:09.729Z,23.50
2023-04-09T20:48:41.859Z,25.50
2023-04-09T20:51:16.643Z,26.25
2023-04-09T20:53:47.433Z,29.00
2023-04-09T20:56:22.655Z,24.75
2023-04-09T20:58:54.102Z,28.75
2023-04-09T21:01:28.841Z,28.50
2023-04-09T21:04:03.433Z,25.50
2023-04-09T21:06:35.106Z,27.25
2023-04-09T21:09:08.423Z,21.00
2023-04-09T21:11:39.106Z,26.25
2023-04-09T21:14:11.489Z,23.25
2023-04-09T21:16:45.395Z,20.00
2023-04-09T21:19:22.857Z,25.50
2023-04-09T21:21:56.825Z,21.75
2023-04-09T21:24:27.411Z,30.50
2023-04-09T21:26:57.950Z,21.00
2023-04-09T21:29:29.324Z,25.75
2023-04-09T21:31:59.992Z,24.50
2023-04-09T21:34:31.835Z,26.75
2023-04-09T21:37:03.636Z,27.25
2023-04-09T21:39:34.341Z,28.00
2023-04-09T21:42:04.879Z,27.25
2023-04-09T21:44:36.839Z,24.75
2023-04-09T21:47:07.415Z,27.25
2023-04-09T21:49:38.033Z,29.25
2023-04-09T21:52:08.880Z,25.00
2023-04-09T21:54:39.939Z,28.50
2023-04-09T21:57:11.132Z,16.75
2023-04-09T21:59:42.144Z,26.75
2023-04-09T22:02:13.402Z,27.50
2023-04-09T22:04:44.322Z,28.25
2023-04-09T22:07:15.522Z,33.00
2023-04-09T22:09:46.822Z,25.25
2023-04-09T22:12:17.925Z,23.50
2023-04-09T22:14:48.395Z,28.75
2023-04-09T22:17:18.899Z,29.00
2023-04-09T22:19:49.968Z,30.50
2023-04-09T22:22:20.998Z,24.25
2023-04-09T22:24:51.600Z,32.25
2023-04-09T22:27:25.962Z,25.75
2023-04-09T22:29:57.125Z,35.75
2023-04-09T22:32:28.023Z,37.00
2023-04-09T22:34:59.050Z,33.00
2023-04-09T22:37:29.754Z,36.25
2023-04-09T22:40:00.176Z,29.75
2023-04-09T22:42:30.599Z,36.00
2023-04-09T22:45:01.589Z,20.50
2023-04-09T22:47:32.427Z,32.50
2023-04-09T22:50:02.988Z,36.25
2023-04-09T22:52:34.185Z,26.00
2023-04-09T22:55:05.151Z,35.00
2023-04-09T22:57:36.177Z,26.50
2023-04-09T23:00:08.008Z,31.00
2023-04-09T23:02:39.851Z,26.25
2023-04-09T23:05:10.934Z,29.25
2023-04-09T23:07:41.565Z,29.25
2023-04-09T23:10:12.497Z,28.25
2023-04-09T23:12:43.540Z,30.75
2023-04-09T23:15:14.254Z,22.00
2023-04-09T23:17:45.493Z,28.25
2023-04-09T23:20:16.076Z,27.50
2023-04-09T23:22:47.869Z,31.75
2023-04-09T23:25:18.884Z,31.25
2023-04-09T23:27:50.731Z,23.50
2023-04-09T23:30:22.302Z,29.25
2023-04-09T23:32:54.948Z,30.50
2023-04-09T23:35:26.056Z,25.75
2023-04-09T23:37:58.158Z,38.50
2023-04-09T23:40:29.995Z,33.00
2023-04-09T23:43:00.455Z,28.75
2023-04-09T23:45:32.271Z,28.00
2023-04-09T23:48:05.311Z,28.50
2023-04-09T23:50:56.466Z,31.25
2023-04-09T23:53:27.580Z,26.25
2023-04-09T23:55:57.956Z,25.25
2023-04-09T23:58:28.893Z,23.00
